Head of Island, Louisiana
Current Conditions -  °F | °C
As of 10:35 AM on Monday 24 Nov 2014 (Local Time) from KHDC Reporting Station
Clear Clear  
Wind Chill: 19°   Ceiling: Unl
Heat Index: 19°   Visibility: 10mi
Dew Point:   Wind: 12mph
Humidity: 52%   Direction: 340°NNW
Pressure: 29.93"   Gusts: 17mph
Location:  30.3666°N, 90.584°W
Report Text: KHDC 241635Z AUTO 34010G15KT 10SM CLR 19/09 A2993 RMK AO2
Loading
Personal Weather Stations






























Interactive Weather Map New forecast layout! Learn more

10-Day Weather Forecast

Advertisements
Track Severe Weather on mobile